sensor_id;sensor_type;location;lat;lon;timestamp;pressure;altitude;pressure_sealevel;temperature;humidity
63946;BME280;50122;56.330;43.838;2022-09-25T19:28:31;99568.94;;;8.83;88.24
63946;BME280;50122;56.330;43.838;2022-09-25T19:31:02;99568.06;;;8.82;89.21
63946;BME280;50122;56.330;43.838;2022-09-25T19:33:32;99569.03;;;8.81;89.97
63946;BME280;50122;56.330;43.838;2022-09-25T19:36:01;99562.88;;;8.81;90.77
63946;BME280;50122;56.330;43.838;2022-09-25T19:38:35;99548.03;;;8.80;91.72
63946;BME280;50122;56.330;43.838;2022-09-25T19:41:08;99556.47;;;8.86;92.76
63946;BME280;50122;56.330;43.838;2022-09-25T19:43:39;99543.13;;;8.90;93.01
63946;BME280;50122;56.330;43.838;2022-09-25T19:46:05;99538.03;;;8.86;93.18
63946;BME280;50122;56.330;43.838;2022-09-25T19:48:33;99535.19;;;8.91;93.68
63946;BME280;50122;56.330;43.838;2022-09-25T19:51:03;99533.38;;;8.92;93.54
63946;BME280;50122;56.330;43.838;2022-09-25T19:53:32;99529.13;;;8.89;93.92
63946;BME280;50122;56.330;43.838;2022-09-25T19:55:59;99531.44;;;8.95;93.95
63946;BME280;50122;56.330;43.838;2022-09-25T19:58:26;99521.78;;;8.96;94.01
63946;BME280;50122;56.330;43.838;2022-09-25T20:00:53;99528.66;;;8.98;94.55
63946;BME280;50122;56.330;43.838;2022-09-25T20:03:23;99524.41;;;8.96;94.44
63946;BME280;50122;56.330;43.838;2022-09-25T20:05:51;99520.81;;;8.97;94.29
63946;BME280;50122;56.330;43.838;2022-09-25T20:08:17;99521.78;;;8.96;94.61
63946;BME280;50122;56.330;43.838;2022-09-25T20:10:44;99506.03;;;8.94;94.68
63946;BME280;50122;56.330;43.838;2022-09-25T20:13:12;99512.06;;;8.96;94.72
63946;BME280;50122;56.330;43.838;2022-09-25T20:15:39;99523.47;;;8.97;94.73
63946;BME280;50122;56.330;43.838;2022-09-25T20:18:08;99509.44;;;8.96;94.56
63946;BME280;50122;56.330;43.838;2022-09-25T20:20:34;99509.28;;;8.99;94.55
63946;BME280;50122;56.330;43.838;2022-09-25T20:23:01;99510.16;;;9.00;94.71
63946;BME280;50122;56.330;43.838;2022-09-25T20:25:27;99498.97;;;8.95;94.90
63946;BME280;50122;56.330;43.838;2022-09-25T20:27:57;99495.56;;;8.93;94.77
63946;BME280;50122;56.330;43.838;2022-09-25T20:30:25;99507.53;;;9.00;94.83
63946;BME280;50122;56.330;43.838;2022-09-25T20:32:54;99503.25;;;8.97;94.50
63946;BME280;50122;56.330;43.838;2022-09-25T20:35:21;99511.00;;;9.00;94.69
63946;BME280;50122;56.330;43.838;2022-09-25T20:37:47;99502.25;;;9.00;94.64
63946;BME280;50122;56.330;43.838;2022-09-25T20:40:14;99500.53;;;8.99;94.49
63946;BME280;50122;56.330;43.838;2022-09-25T20:42:42;99494.34;;;9.00;94.53
63946;BME280;50122;56.330;43.838;2022-09-25T20:45:09;99488.34;;;8.96;94.54
63946;BME280;50122;56.330;43.838;2022-09-25T20:47:36;99492.72;;;8.97;94.42
63946;BME280;50122;56.330;43.838;2022-09-25T20:50:11;99490.75;;;9.01;94.61
63946;BME280;50122;56.330;43.838;2022-09-25T20:52:38;99489.75;;;9.03;94.44
63946;BME280;50122;56.330;43.838;2022-09-25T20:55:05;99485.31;;;9.04;94.27
63946;BME280;50122;56.330;43.838;2022-09-25T20:57:32;99478.06;;;8.92;94.07
63946;BME280;50122;56.330;43.838;2022-09-25T20:59:59;99484.00;;;8.95;93.98
63946;BME280;50122;56.330;43.838;2022-09-25T21:02:27;99482.47;;;8.91;93.71
63946;BME280;50122;56.330;43.838;2022-09-25T21:04:55;99473.94;;;8.86;93.74
63946;BME280;50122;56.330;43.838;2022-09-25T21:07:22;99481.13;;;8.82;93.59
63946;BME280;50122;56.330;43.838;2022-09-25T21:09:52;99474.44;;;8.75;94.06
63946;BME280;50122;56.330;43.838;2022-09-25T21:12:19;99476.41;;;8.72;93.71
63946;BME280;50122;56.330;43.838;2022-09-25T21:14:47;99491.28;;;8.73;93.72
63946;BME280;50122;56.330;43.838;2022-09-25T21:17:14;99487.84;;;8.71;93.60
63946;BME280;50122;56.330;43.838;2022-09-25T21:19:42;99487.41;;;8.62;93.61
63946;BME280;50122;56.330;43.838;2022-09-25T21:22:09;99445.69;;;8.34;93.34
63946;BME280;50122;56.330;43.838;2022-09-25T21:24:35;99489.38;;;8.57;93.27
63946;BME280;50122;56.330;43.838;2022-09-25T21:27:04;99492.31;;;8.51;93.75
63946;BME280;50122;56.330;43.838;2022-09-25T21:29:30;99489.84;;;8.48;93.48
63946;BME280;50122;56.330;43.838;2022-09-25T21:31:59;99501.31;;;8.47;93.21
63946;BME280;50122;56.330;43.838;2022-09-25T21:34:25;99498.84;;;8.42;93.25
63946;BME280;50122;56.330;43.838;2022-09-25T21:36:52;99500.69;;;8.40;93.02
63946;BME280;50122;56.330;43.838;2022-09-25T21:39:19;99501.06;;;8.32;93.03
63946;BME280;50122;56.330;43.838;2022-09-25T21:41:47;99507.03;;;8.36;93.41
63946;BME280;50122;56.330;43.838;2022-09-25T21:44:16;99507.97;;;8.35;93.46
63946;BME280;50122;56.330;43.838;2022-09-25T21:46:44;99502.06;;;8.30;93.07
63946;BME280;50122;56.330;43.838;2022-09-25T21:49:19;99505.34;;;8.35;93.38
63946;BME280;50122;56.330;43.838;2022-09-25T21:51:47;99510.69;;;8.33;93.16
63946;BME280;50122;56.330;43.838;2022-09-25T21:54:15;99506.19;;;8.35;93.33
63946;BME280;50122;56.330;43.838;2022-09-25T21:56:42;99507.09;;;8.34;93.48
63946;BME280;50122;56.330;43.838;2022-09-25T21:59:10;99506.41;;;8.31;93.29
63946;BME280;50122;56.330;43.838;2022-09-25T22:01:38;99508.97;;;8.32;93.11
63946;BME280;50122;56.330;43.838;2022-09-25T22:04:07;99507.25;;;8.31;93.03
63946;BME280;50122;56.330;43.838;2022-09-25T22:06:36;99495.31;;;8.24;93.25
63946;BME280;50122;56.330;43.838;2022-09-25T22:09:07;99504.06;;;8.25;93.39
63946;BME280;50122;56.330;43.838;2022-09-25T22:11:35;99506.56;;;8.28;93.55
63946;BME280;50122;56.330;43.838;2022-09-25T22:14:03;99505.75;;;8.26;93.35
63946;BME280;50122;56.330;43.838;2022-09-25T22:16:36;99497.16;;;8.22;93.21
63946;BME280;50122;56.330;43.838;2022-09-25T22:19:14;99506.69;;;8.25;93.27
63946;BME280;50122;56.330;43.838;2022-09-25T22:21:42;99505.91;;;8.23;93.37
63946;BME280;50122;56.330;43.838;2022-09-25T22:24:09;99491.97;;;8.21;93.71
63946;BME280;50122;56.330;43.838;2022-09-25T22:26:40;99492.59;;;8.26;93.65
63946;BME280;50122;56.330;43.838;2022-09-25T22:29:10;99494.22;;;8.28;93.70
63946;BME280;50122;56.330;43.838;2022-09-25T22:31:37;99496.03;;;8.28;93.91
63946;BME280;50122;56.330;43.838;2022-09-25T22:34:18;99509.13;;;8.29;93.91
63946;BME280;50122;56.330;43.838;2022-09-25T22:36:45;99495.66;;;8.35;93.79
63946;BME280;50122;56.330;43.838;2022-09-25T22:39:14;99488.91;;;8.30;93.89
63946;BME280;50122;56.330;43.838;2022-09-25T22:41:42;99498.28;;;8.35;93.70
63946;BME280;50122;56.330;43.838;2022-09-25T22:44:09;99497.59;;;8.32;93.85
63946;BME280;50122;56.330;43.838;2022-09-25T22:46:36;99499.19;;;8.34;93.91
63946;BME280;50122;56.330;43.838;2022-09-25T22:49:02;99492.44;;;8.29;93.42
63946;BME280;50122;56.330;43.838;2022-09-25T22:51:29;99490.47;;;8.34;93.83
63946;BME280;50122;56.330;43.838;2022-09-25T22:53:56;99489.53;;;8.35;93.71
63946;BME280;50122;56.330;43.838;2022-09-25T22:56:28;99487.38;;;8.43;93.72
63946;BME280;50122;56.330;43.838;2022-09-25T22:59:05;99484.91;;;8.40;93.54
63946;BME280;50122;56.330;43.838;2022-09-25T23:01:50;99474.22;;;8.43;93.47
63946;BME280;50122;56.330;43.838;2022-09-25T23:04:23;99479.25;;;8.49;93.36
63946;BME280;50122;56.330;43.838;2022-09-25T23:06:50;99481.72;;;8.52;93.47
63946;BME280;50122;56.330;43.838;2022-09-25T23:09:19;99473.09;;;8.49;93.24
63946;BME280;50122;56.330;43.838;2022-09-25T23:11:47;99478.94;;;8.56;93.24
63946;BME280;50122;56.330;43.838;2022-09-25T23:14:16;99476.31;;;8.56;93.48
63946;BME280;50122;56.330;43.838;2022-09-25T23:16:45;99478.09;;;8.55;92.96
63946;BME280;50122;56.330;43.838;2022-09-25T23:19:13;99461.66;;;8.50;93.53
63946;BME280;50122;56.330;43.838;2022-09-25T23:21:40;99477.06;;;8.58;93.35
63946;BME280;50122;56.330;43.838;2022-09-25T23:24:11;99474.50;;;8.56;93.12
63946;BME280;50122;56.330;43.838;2022-09-25T23:26:38;99475.38;;;8.57;93.34
63946;BME280;50122;56.330;43.838;2022-09-25T23:29:11;99472.09;;;8.51;93.25
63946;BME280;50122;56.330;43.838;2022-09-25T23:31:39;99470.22;;;8.54;93.37
63946;BME280;50122;56.330;43.838;2022-09-25T23:34:08;99485.28;;;8.51;92.87
63946;BME280;50122;56.330;43.838;2022-09-25T23:36:35;99482.00;;;8.46;93.14
63946;BME280;50122;56.330;43.838;2022-09-25T23:39:04;99492.19;;;8.54;93.28
63946;BME280;50122;56.330;43.838;2022-09-25T23:41:36;99483.78;;;8.46;93.21
63946;BME280;50122;56.330;43.838;2022-09-25T23:44:05;99499.09;;;8.57;93.17
63946;BME280;50122;56.330;43.838;2022-09-25T23:46:36;99490.22;;;8.58;92.61
63946;BME280;50122;56.330;43.838;2022-09-25T23:49:03;99490.53;;;8.51;92.58
63946;BME280;50122;56.330;43.838;2022-09-25T23:51:30;99487.22;;;8.48;92.91
63946;BME280;50122;56.330;43.838;2022-09-25T23:53:58;99483.84;;;8.44;92.63
63946;BME280;50122;56.330;43.838;2022-09-25T23:56:30;99488.91;;;8.49;93.17
63946;BME280;50122;56.330;43.838;2022-09-25T23:58:59;99497.66;;;8.49;92.50
